Time;durP1;ratioP1;P1;durP2;ratioP2;P2;SDS_P1;SDS_P2;PMS_P1;PMS_P2;Temp;Humidity;BMP_temperature;BMP_pressure;BME280_temperature;BME280_humidity;BME280_pressure;Samples;Min_cycle;Max_cycle;Signal;HPM_P1;HPM_P2
2021/12/08 00:00:50;;;;;;;51.87;23.07;;;0.70;99.90;;;;;;5054252;28;20237;-82
2021/12/08 00:03:15;;;;;;;48.30;23.10;;;0.70;99.90;;;;;;5054756;28;20263;-79
2021/12/08 00:05:43;;;;;;;50.50;22.70;;;0.70;99.90;;;;;;5053321;28;20269;-79
2021/12/08 00:08:11;;;;;;;49.43;24.20;;;0.70;99.90;;;;;;5034053;28;20748;-79
2021/12/08 00:13:32;;;;;;;50.40;22.13;;;0.70;99.90;;;;;;4999312;28;20215;-79
2021/12/08 00:16:00;;;;;;;53.47;23.80;;;0.60;99.90;;;;;;5052304;28;20221;-79
2021/12/08 00:18:29;;;;;;;53.97;23.57;;;0.70;99.90;;;;;;5051477;28;20214;-79
2021/12/08 00:20:58;;;;;;;44.57;21.67;;;0.60;99.90;;;;;;5034946;28;20197;-79
2021/12/08 00:23:25;;;;;;;45.30;23.50;;;0.60;99.90;;;;;;5034282;28;20221;-79
2021/12/08 00:25:51;;;;;;;51.00;23.60;;;0.60;99.90;;;;;;5033896;28;20752;-79
2021/12/08 00:28:18;;;;;;;46.70;22.40;;;0.60;99.90;;;;;;5050037;28;20334;-79
2021/12/08 00:30:47;;;;;;;43.27;20.43;;;0.60;99.90;;;;;;5051700;28;20251;-80
2021/12/08 00:33:13;;;;;;;45.33;21.93;;;0.60;99.90;;;;;;5033525;28;20645;-77
2021/12/08 00:35:40;;;;;;;45.53;20.93;;;0.60;99.90;;;;;;5051173;28;20171;-77
2021/12/08 00:38:07;;;;;;;48.30;23.67;;;0.60;99.90;;;;;;5050912;28;20892;-79
2021/12/08 00:40:33;;;;;;;47.40;22.80;;;0.50;99.90;;;;;;5033110;28;20210;-77
2021/12/08 00:43:00;;;;;;;50.93;22.67;;;0.60;99.90;;;;;;5050820;28;20199;-77
2021/12/08 00:45:27;;;;;;;47.63;23.37;;;0.60;99.90;;;;;;5033710;28;20177;-79
2021/12/08 00:47:53;;;;;;;50.87;22.13;;;0.60;99.90;;;;;;5034132;28;20170;-79
2021/12/08 00:50:22;;;;;;;47.60;23.47;;;0.50;99.90;;;;;;5033858;28;20293;-79
2021/12/08 00:52:51;;;;;;;41.07;19.70;;;0.50;99.90;;;;;;5051698;28;20204;-79
2021/12/08 00:55:17;;;;;;;48.37;22.37;;;0.50;99.90;;;;;;5051963;28;20215;-80
2021/12/08 00:57:42;;;;;;;48.60;23.37;;;0.50;99.90;;;;;;5031386;28;20592;-83
2021/12/08 01:00:12;;;;;;;49.30;22.53;;;0.50;99.90;;;;;;5033785;28;20186;-79
2021/12/08 01:02:39;;;;;;;44.90;20.50;;;0.50;99.90;;;;;;5033903;28;20597;-79
2021/12/08 01:05:11;;;;;;;48.87;23.03;;;0.50;99.90;;;;;;5051549;28;20211;-79
2021/12/08 01:07:37;;;;;;;37.53;18.63;;;0.50;99.90;;;;;;5051413;28;20288;-81
2021/12/08 01:10:05;;;;;;;46.53;21.77;;;0.40;99.90;;;;;;5033455;28;20580;-80
2021/12/08 01:12:31;;;;;;;46.40;22.23;;;0.40;99.90;;;;;;5033553;28;20211;-79
2021/12/08 01:14:57;;;;;;;39.33;19.17;;;0.30;99.90;;;;;;5056915;28;20234;-79
2021/12/08 01:17:22;;;;;;;47.47;21.07;;;0.30;99.90;;;;;;5039979;28;20693;-79
2021/12/08 01:19:48;;;;;;;47.10;22.43;;;0.40;99.90;;;;;;5040261;28;20224;-79
2021/12/08 01:22:13;;;;;;;47.83;23.03;;;0.40;99.90;;;;;;5057887;28;20238;-80
2021/12/08 01:24:39;;;;;;;47.43;22.10;;;0.40;99.90;;;;;;5057598;28;20214;-77
2021/12/08 01:27:05;;;;;;;50.20;22.90;;;0.40;99.90;;;;;;5057916;28;20273;-77
2021/12/08 01:29:30;;;;;;;51.73;22.73;;;0.30;99.90;;;;;;5055248;28;20219;-77
2021/12/08 01:31:56;;;;;;;47.40;22.00;;;0.30;99.90;;;;;;5067047;28;20205;-78
2021/12/08 01:34:21;;;;;;;45.90;22.27;;;0.30;99.90;;;;;;5072801;28;20725;-76
2021/12/08 01:36:47;;;;;;;46.73;21.73;;;0.30;99.90;;;;;;5071667;28;20222;-77
2021/12/08 01:39:12;;;;;;;48.27;22.13;;;0.40;99.90;;;;;;5054371;28;20242;-79
2021/12/08 01:41:39;;;;;;;48.30;21.63;;;0.40;99.90;;;;;;5054336;28;20187;-77
2021/12/08 01:46:52;;;;;;;42.57;20.73;;;0.40;99.90;;;;;;5053906;28;20261;-77
2021/12/08 01:49:18;;;;;;;48.30;21.33;;;0.40;99.90;;;;;;5050513;28;20325;-78
2021/12/08 01:51:44;;;;;;;54.37;22.57;;;0.30;99.90;;;;;;5052943;28;20187;-77
2021/12/08 01:54:10;;;;;;;50.07;23.60;;;0.40;99.90;;;;;;5052682;28;20171;-77
2021/12/08 01:56:37;;;;;;;45.40;21.67;;;0.30;99.90;;;;;;5071166;28;20230;-77
2021/12/08 01:59:05;;;;;;;48.50;22.33;;;0.30;99.90;;;;;;5065096;28;20226;-77
2021/12/08 02:01:32;;;;;;;46.17;21.83;;;0.30;99.90;;;;;;5066673;28;20796;-77
2021/12/08 02:04:03;;;;;;;43.43;20.77;;;0.30;99.90;;;;;;5067544;28;20720;-78
2021/12/08 02:06:29;;;;;;;49.07;22.03;;;0.20;99.90;;;;;;5068842;28;20212;-76
2021/12/08 02:08:55;;;;;;;45.87;22.63;;;0.30;99.90;;;;;;5052238;28;20253;-77
2021/12/08 02:11:22;;;;;;;49.27;22.37;;;0.30;99.90;;;;;;5052849;28;20206;-81
2021/12/08 02:13:51;;;;;;;50.40;22.43;;;0.30;99.90;;;;;;5057636;28;20284;-77
2021/12/08 02:16:16;;;;;;;46.30;21.30;;;0.40;99.90;;;;;;5057337;28;20234;-77
2021/12/08 02:18:47;;;;;;;46.50;22.47;;;0.30;99.90;;;;;;5038672;28;20244;-77
2021/12/08 02:21:27;;;;;;;36.13;18.87;;;0.30;99.90;;;;;;5057204;28;20654;-77
2021/12/08 02:23:55;;;;;;;44.67;21.93;;;0.30;99.90;;;;;;5042982;28;20293;-79
2021/12/08 02:26:20;;;;;;;47.47;21.10;;;0.30;99.90;;;;;;5053684;28;20210;-77
2021/12/08 02:28:46;;;;;;;47.10;22.13;;;0.30;99.90;;;;;;5051645;28;20209;-78
2021/12/08 02:31:16;;;;;;;50.30;22.80;;;0.30;99.90;;;;;;5053481;28;20216;-78
2021/12/08 02:47:52;;;;;;;46.10;23.80;;;0.40;99.90;;;;;;5053410;28;20271;-78
2021/12/08 02:50:21;;;;;;;43.30;20.47;;;0.40;99.90;;;;;;5053453;28;20223;-78
2021/12/08 02:52:47;;;;;;;43.30;21.57;;;0.50;99.90;;;;;;5037110;28;20385;-78
2021/12/08 02:55:13;;;;;;;42.07;20.23;;;0.30;99.90;;;;;;5053537;28;20286;-77
2021/12/08 02:57:38;;;;;;;46.67;21.77;;;0.30;99.90;;;;;;5033236;28;20220;-77
2021/12/08 03:00:07;;;;;;;36.30;17.23;;;0.30;99.90;;;;;;5035145;28;20211;-77
2021/12/08 03:02:33;;;;;;;41.27;20.43;;;0.30;99.90;;;;;;5027848;28;20221;-77
2021/12/08 03:04:58;;;;;;;42.87;20.30;;;0.20;99.90;;;;;;5053061;28;20216;-78
2021/12/08 03:07:24;;;;;;;42.17;20.40;;;0.20;99.90;;;;;;5044916;28;20218;-80
2021/12/08 03:09:49;;;;;;;40.40;20.57;;;0.20;99.90;;;;;;5012226;28;20201;-78
2021/12/08 03:12:26;;;;;;;49.13;21.37;;;0.30;99.90;;;;;;4996349;28;20626;-79
2021/12/08 03:14:51;;;;;;;42.43;20.60;;;0.30;99.90;;;;;;5012217;28;20180;-78
2021/12/08 03:17:17;;;;;;;39.83;20.23;;;0.20;99.90;;;;;;5012538;28;20701;-79
2021/12/08 03:19:42;;;;;;;42.27;19.13;;;0.20;99.90;;;;;;5012399;28;20262;-78
2021/12/08 03:22:10;;;;;;;44.43;20.47;;;0.20;99.90;;;;;;5012669;28;20213;-78
2021/12/08 03:24:39;;;;;;;37.20;19.77;;;0.20;99.90;;;;;;5012508;28;20232;-78
2021/12/08 03:27:14;;;;;;;47.13;21.03;;;0.20;99.90;;;;;;5012949;28;20550;-78
2021/12/08 03:29:54;;;;;;;42.53;19.50;;;0.30;99.90;;;;;;5012660;28;20201;-79
2021/12/08 03:32:32;;;;;;;45.77;20.60;;;0.20;99.90;;;;;;5012544;28;20596;-78
2021/12/08 03:34:58;;;;;;;43.80;21.77;;;0.20;99.90;;;;;;4994941;28;20303;-78
2021/12/08 03:37:36;;;;;;;39.93;19.63;;;0.20;99.90;;;;;;5012973;28;20216;-79
2021/12/08 03:40:08;;;;;;;47.13;22.30;;;0.20;99.90;;;;;;5018653;28;20204;-78
2021/12/08 03:42:37;;;;;;;46.20;21.83;;;0.20;99.90;;;;;;5013569;28;20762;-80
2021/12/08 03:45:10;;;;;;;37.80;18.97;;;0.20;99.90;;;;;;4995328;28;20177;-78
2021/12/08 03:47:39;;;;;;;39.93;20.57;;;0.20;99.90;;;;;;5012280;28;20249;-79
2021/12/08 03:50:07;;;;;;;39.47;20.80;;;0.20;99.90;;;;;;4994590;28;20214;-79
2021/12/08 03:52:33;;;;;;;46.47;20.90;;;0.20;99.90;;;;;;5011966;28;20614;-80
2021/12/08 03:54:59;;;;;;;38.83;19.30;;;0.20;99.90;;;;;;4999838;28;20212;-79
2021/12/08 03:57:24;;;;;;;44.50;21.30;;;0.20;99.90;;;;;;5014562;28;20349;-78
2021/12/08 03:59:50;;;;;;;46.87;21.70;;;0.20;99.90;;;;;;5012399;28;20178;-78
2021/12/08 04:02:16;;;;;;;48.03;21.90;;;0.20;99.90;;;;;;5012105;28;20704;-80
2021/12/08 04:04:48;;;;;;;40.67;19.50;;;0.20;99.90;;;;;;5012101;28;20246;-80
2021/12/08 04:07:16;;;;;;;46.00;21.90;;;0.20;99.90;;;;;;4994562;28;20212;-78
2021/12/08 04:09:44;;;;;;;45.33;20.50;;;0.30;99.90;;;;;;4996587;28;20213;-78
2021/12/08 04:12:13;;;;;;;42.17;17.97;;;0.20;99.90;;;;;;5011933;28;20179;-77
2021/12/08 04:14:43;;;;;;;45.90;21.67;;;0.20;99.90;;;;;;5012333;28;20220;-78
2021/12/08 04:17:17;;;;;;;39.50;20.23;;;0.20;99.90;;;;;;4994247;28;20209;-78
2021/12/08 04:19:44;;;;;;;43.20;20.20;;;0.20;99.90;;;;;;4993745;28;20201;-78
2021/12/08 04:22:17;;;;;;;47.93;22.10;;;0.20;99.90;;;;;;5011794;28;20214;-79
2021/12/08 04:24:44;;;;;;;45.10;21.70;;;0.20;99.90;;;;;;4994075;28;20202;-78
2021/12/08 04:27:16;;;;;;;43.40;21.40;;;0.20;99.90;;;;;;5011502;28;20263;-78
2021/12/08 04:29:42;;;;;;;45.03;22.90;;;0.30;99.90;;;;;;5011541;28;20195;-78
2021/12/08 04:32:14;;;;;;;54.20;23.80;;;0.20;99.90;;;;;;5011898;28;20729;-79
2021/12/08 04:34:42;;;;;;;46.47;23.07;;;0.20;99.90;;;;;;5011661;28;20215;-78
2021/12/08 04:37:18;;;;;;;46.37;22.30;;;0.30;99.90;;;;;;5018599;28;20278;-78
2021/12/08 04:40:02;;;;;;;48.83;23.40;;;0.30;99.90;;;;;;4996555;28;20210;-78
2021/12/08 04:42:47;;;;;;;48.57;23.00;;;0.30;99.90;;;;;;5011345;28;20250;-78
2021/12/08 04:45:21;;;;;;;46.63;22.13;;;0.30;99.90;;;;;;4994093;28;20201;-79
2021/12/08 04:48:06;;;;;;;43.97;22.10;;;0.30;99.90;;;;;;5012966;28;20546;-79
2021/12/08 04:50:59;;;;;;;46.57;21.43;;;0.30;99.90;;;;;;5010614;28;20215;-78
2021/12/08 04:53:41;;;;;;;51.03;23.80;;;0.30;99.90;;;;;;5010952;28;20210;-78
2021/12/08 05:04:54;;;;;;;45.20;23.30;;;0.40;99.90;;;;;;5011011;28;20637;-80
2021/12/08 05:10:09;;;;;;;41.23;20.43;;;0.40;99.90;;;;;;5015522;28;20221;-78
2021/12/08 05:12:37;;;;;;;40.80;18.83;;;0.40;99.90;;;;;;5011112;28;20578;-78
2021/12/08 05:15:32;;;;;;;44.20;21.93;;;0.30;99.90;;;;;;5011617;28;20557;-79
2021/12/08 05:18:05;;;;;;;45.20;22.63;;;0.40;99.90;;;;;;5011136;28;20214;-79
2021/12/08 05:20:39;;;;;;;42.10;21.93;;;0.40;99.90;;;;;;5010671;28;20210;-78
2021/12/08 05:23:36;;;;;;;46.30;21.00;;;0.40;99.90;;;;;;5011130;28;20258;-78
2021/12/08 05:26:10;;;;;;;47.57;21.80;;;0.40;99.90;;;;;;5020585;28;20214;-78
2021/12/08 05:28:36;;;;;;;41.77;20.90;;;0.40;99.90;;;;;;5030277;28;20674;-81
2021/12/08 05:31:16;;;;;;;41.57;20.63;;;0.40;99.90;;;;;;5012960;28;20241;-80
2021/12/08 05:33:43;;;;;;;40.17;20.53;;;0.30;99.90;;;;;;5030557;28;20366;-78
2021/12/08 05:36:11;;;;;;;40.73;21.07;;;0.40;99.90;;;;;;5012902;28;20225;-78
2021/12/08 05:38:37;;;;;;;38.17;18.57;;;0.30;99.90;;;;;;5039039;28;20212;-79
2021/12/08 05:41:13;;;;;;;35.97;17.00;;;0.30;99.90;;;;;;5030442;28;20211;-81
2021/12/08 05:43:40;;;;;;;42.80;22.33;;;0.30;99.90;;;;;;5030400;28;20583;-78
2021/12/08 05:46:06;;;;;;;45.07;20.73;;;0.30;99.90;;;;;;5030421;28;20681;-78
2021/12/08 05:48:33;;;;;;;42.47;21.73;;;0.30;99.90;;;;;;5030038;28;20322;-78
2021/12/08 05:51:19;;;;;;;39.00;19.87;;;0.30;99.90;;;;;;5013057;28;20168;-78
2021/12/08 05:53:49;;;;;;;41.00;20.63;;;0.30;99.90;;;;;;5014549;28;20556;-77
2021/12/08 05:56:15;;;;;;;35.27;19.33;;;0.20;99.90;;;;;;5027045;28;20212;-78
2021/12/08 05:58:42;;;;;;;39.37;21.07;;;0.10;99.90;;;;;;5030872;28;20331;-78
2021/12/08 06:01:16;;;;;;;41.97;17.53;;;0.10;99.90;;;;;;5015157;28;20215;-78
2021/12/08 06:03:44;;;;;;;41.03;19.53;;;0.10;99.90;;;;;;5034066;28;20697;-79
2021/12/08 06:06:11;;;;;;;41.60;19.50;;;0.00;99.90;;;;;;5033848;28;20250;-79
2021/12/08 06:08:38;;;;;;;39.27;19.37;;;0.00;99.90;;;;;;5016276;28;20184;-78
2021/12/08 06:11:06;;;;;;;40.03;19.23;;;0.00;99.90;;;;;;5016171;28;20721;-78
2021/12/08 06:13:33;;;;;;;43.20;20.67;;;0.00;99.90;;;;;;5034226;28;20322;-79
2021/12/08 06:15:59;;;;;;;40.47;19.13;;;0.00;99.90;;;;;;5016893;28;20213;-78
2021/12/08 06:18:26;;;;;;;41.93;21.30;;;0.00;99.90;;;;;;5033345;28;20581;-78
2021/12/08 06:20:59;;;;;;;42.60;20.97;;;0.10;99.90;;;;;;5016695;28;20222;-79
2021/12/08 06:23:25;;;;;;;41.13;19.33;;;0.10;99.90;;;;;;5015844;28;20230;-78
2021/12/08 06:25:51;;;;;;;38.50;19.13;;;0.10;99.90;;;;;;5029025;28;20341;-78
2021/12/08 06:28:17;;;;;;;38.67;18.57;;;0.10;99.90;;;;;;5029789;28;20204;-78
2021/12/08 06:30:45;;;;;;;41.33;18.70;;;0.10;99.90;;;;;;5033469;28;20210;-79
2021/12/08 06:33:13;;;;;;;38.17;19.23;;;0.20;99.90;;;;;;5007821;28;20186;-79
2021/12/08 06:35:44;;;;;;;39.93;19.27;;;0.20;99.90;;;;;;5025713;28;20513;-78
2021/12/08 06:38:11;;;;;;;40.43;19.73;;;0.20;99.90;;;;;;5024789;28;20222;-79
2021/12/08 06:40:50;;;;;;;40.43;20.30;;;0.20;99.90;;;;;;5005329;28;20604;-79
2021/12/08 06:43:20;;;;;;;37.80;17.70;;;0.20;99.90;;;;;;5011573;28;20210;-78
2021/12/08 06:45:47;;;;;;;46.43;22.07;;;0.20;99.90;;;;;;5029873;28;20211;-79
2021/12/08 06:48:22;;;;;;;38.43;18.63;;;0.20;99.90;;;;;;5036735;28;20194;-79
2021/12/08 06:50:53;;;;;;;41.73;20.33;;;0.30;99.90;;;;;;5008390;28;20209;-79
2021/12/08 06:53:19;;;;;;;42.93;20.10;;;0.30;99.90;;;;;;5015275;28;20646;-79
2021/12/08 06:55:53;;;;;;;42.03;20.27;;;0.30;99.90;;;;;;5032487;28;20289;-79
2021/12/08 06:58:24;;;;;;;44.83;20.90;;;0.30;99.90;;;;;;5015548;28;20218;-79
2021/12/08 07:01:11;;;;;;;42.93;20.20;;;0.20;99.90;;;;;;5015559;28;20247;-79
2021/12/08 07:04:03;;;;;;;44.10;20.03;;;0.30;99.90;;;;;;5033340;28;20232;-79
2021/12/08 07:06:42;;;;;;;41.47;18.93;;;0.20;99.90;;;;;;5050568;28;20213;-79
2021/12/08 07:09:16;;;;;;;44.30;20.30;;;0.20;99.90;;;;;;5034991;28;20198;-78
2021/12/08 07:11:42;;;;;;;44.93;20.07;;;0.20;99.90;;;;;;5052277;28;20187;-80
2021/12/08 07:14:08;;;;;;;39.23;18.43;;;0.20;99.90;;;;;;5045896;28;20301;-79
2021/12/08 07:16:38;;;;;;;46.77;21.40;;;0.20;99.90;;;;;;5027932;28;20238;-80
2021/12/08 07:19:21;;;;;;;42.97;20.43;;;0.20;99.90;;;;;;5035128;28;20249;-78
2021/12/08 07:21:48;;;;;;;40.43;20.47;;;0.20;99.90;;;;;;5034069;28;20209;-78
2021/12/08 07:24:17;;;;;;;46.17;20.53;;;0.20;99.90;;;;;;5030125;28;20182;-79
2021/12/08 07:26:44;;;;;;;48.23;21.30;;;0.20;99.90;;;;;;5045856;28;20199;-79
2021/12/08 07:29:14;;;;;;;51.23;22.47;;;0.30;99.90;;;;;;5032322;28;20208;-78
2021/12/08 07:31:57;;;;;;;51.07;21.47;;;0.30;99.90;;;;;;5032462;28;20205;-79
2021/12/08 07:34:25;;;;;;;46.53;22.57;;;0.30;99.90;;;;;;5032574;28;20212;-78
2021/12/08 07:36:55;;;;;;;55.73;22.17;;;0.30;99.90;;;;;;5015464;28;20232;-79
2021/12/08 07:39:27;;;;;;;52.23;20.60;;;0.30;99.90;;;;;;5031709;28;20291;-78
2021/12/08 07:41:58;;;;;;;49.97;21.93;;;0.30;99.90;;;;;;5032888;28;20161;-79
2021/12/08 07:44:24;;;;;;;53.30;22.97;;;0.30;99.90;;;;;;5032404;28;20288;-79
2021/12/08 07:46:58;;;;;;;50.93;22.67;;;0.30;99.90;;;;;;5014375;28;20297;-79
2021/12/08 07:49:36;;;;;;;49.80;21.37;;;0.40;99.90;;;;;;5031824;28;20227;-78
2021/12/08 07:52:28;;;;;;;39.83;19.20;;;0.40;99.90;;;;;;5031859;28;20652;-79
2021/12/08 07:54:56;;;;;;;48.37;22.23;;;0.40;99.90;;;;;;5026088;28;20194;-79
2021/12/08 07:57:26;;;;;;;43.10;18.40;;;0.40;99.90;;;;;;5014122;28;20207;-79
2021/12/08 07:59:54;;;;;;;46.10;20.10;;;0.40;99.90;;;;;;5014647;28;20176;-79
2021/12/08 08:02:25;;;;;;;52.83;22.13;;;0.40;99.90;;;;;;5040348;28;20216;-78
2021/12/08 08:04:51;;;;;;;43.87;19.50;;;0.40;99.90;;;;;;5014972;28;20207;-79
2021/12/08 08:07:17;;;;;;;51.00;22.50;;;0.50;99.90;;;;;;5032696;28;20286;-79
2021/12/08 08:09:46;;;;;;;52.03;21.40;;;0.40;99.90;;;;;;5014176;28;20208;-79
2021/12/08 08:12:21;;;;;;;56.60;21.90;;;0.50;99.90;;;;;;5014139;28;20183;-78
2021/12/08 08:14:53;;;;;;;53.53;22.13;;;0.50;99.90;;;;;;5032238;28;20168;-79
2021/12/08 08:17:28;;;;;;;54.80;22.80;;;0.50;99.90;;;;;;5031866;28;20214;-79
2021/12/08 08:19:55;;;;;;;54.73;21.80;;;0.50;99.90;;;;;;5024164;28;20306;-79
2021/12/08 08:22:27;;;;;;;53.47;23.30;;;0.60;99.90;;;;;;5013855;28;20210;-79
2021/12/08 08:24:55;;;;;;;52.20;21.13;;;0.50;99.90;;;;;;5022906;28;20200;-78
2021/12/08 08:27:22;;;;;;;54.53;21.07;;;0.50;99.90;;;;;;5031494;28;20206;-79
2021/12/08 08:29:48;;;;;;;52.67;22.87;;;0.60;99.90;;;;;;5014024;28;20193;-79
2021/12/08 08:32:26;;;;;;;51.87;22.17;;;0.60;99.90;;;;;;5031274;28;20617;-79
2021/12/08 08:34:56;;;;;;;48.50;22.73;;;0.70;99.90;;;;;;5005762;28;20227;-79
2021/12/08 08:37:22;;;;;;;58.07;23.50;;;0.70;99.90;;;;;;5030558;28;20217;-80
2021/12/08 08:39:53;;;;;;;62.53;22.30;;;0.70;99.90;;;;;;5030730;28;20677;-79
2021/12/08 08:42:26;;;;;;;62.03;23.13;;;0.80;99.90;;;;;;5031422;28;20180;-79
2021/12/08 08:45:04;;;;;;;56.43;22.77;;;0.80;99.90;;;;;;5031479;28;20615;-79
2021/12/08 08:47:38;;;;;;;51.00;22.50;;;0.80;99.90;;;;;;5030918;28;20723;-79
2021/12/08 08:50:13;;;;;;;56.83;22.20;;;0.80;99.90;;;;;;5013073;28;20575;-79
2021/12/08 08:52:46;;;;;;;54.80;23.93;;;0.80;99.90;;;;;;5013049;28;20205;-79
2021/12/08 08:55:16;;;;;;;51.87;21.93;;;0.80;99.90;;;;;;5030550;28;20929;-78
2021/12/08 08:57:44;;;;;;;50.53;21.63;;;0.80;99.90;;;;;;5012653;28;20223;-77
2021/12/08 09:00:23;;;;;;;50.73;23.13;;;0.80;99.90;;;;;;5030820;28;20184;-78
2021/12/08 09:02:51;;;;;;;50.40;21.73;;;0.80;99.90;;;;;;5023668;28;20209;-79
2021/12/08 09:05:23;;;;;;;47.67;20.37;;;0.80;99.90;;;;;;5013188;28;20624;-79
2021/12/08 09:07:52;;;;;;;55.07;21.80;;;0.80;99.90;;;;;;5023236;28;20238;-79
2021/12/08 09:10:50;;;;;;;55.27;23.40;;;0.80;99.90;;;;;;5013112;28;20245;-78
2021/12/08 09:13:22;;;;;;;58.27;22.57;;;0.80;99.90;;;;;;5005452;28;20222;-79
2021/12/08 09:15:53;;;;;;;49.90;20.63;;;0.80;99.90;;;;;;5023272;28;20243;-78
2021/12/08 09:18:44;;;;;;;59.10;22.87;;;0.80;99.90;;;;;;5013066;28;20211;-79
2021/12/08 09:21:37;;;;;;;54.90;22.57;;;0.80;99.90;;;;;;5030939;28;20734;-78
2021/12/08 09:24:36;;;;;;;49.77;22.37;;;0.80;99.90;;;;;;5013775;28;20569;-79
2021/12/08 09:27:04;;;;;;;50.70;20.17;;;0.80;99.90;;;;;;5014515;28;20275;-80
2021/12/08 09:29:57;;;;;;;51.43;21.07;;;0.80;99.90;;;;;;5021998;28;20592;-78
2021/12/08 09:32:34;;;;;;;50.70;22.67;;;0.80;99.90;;;;;;5031442;28;20617;-79
2021/12/08 09:35:10;;;;;;;50.40;22.10;;;0.80;99.90;;;;;;5032092;28;20260;-81
2021/12/08 09:37:39;;;;;;;54.63;22.37;;;0.90;99.90;;;;;;5059339;22;20396;-79
2021/12/08 09:40:12;;;;;;;51.30;20.63;;;1.00;99.90;;;;;;5062090;28;20304;-77
2021/12/08 09:42:42;;;;;;;52.77;22.27;;;1.00;99.90;;;;;;5075835;28;20216;-77
2021/12/08 09:45:16;;;;;;;56.20;23.00;;;1.10;99.90;;;;;;5076489;28;20178;-77
2021/12/08 09:47:41;;;;;;;52.93;21.30;;;1.10;99.90;;;;;;5074273;28;20210;-77
2021/12/08 09:50:10;;;;;;;48.80;19.97;;;1.10;99.90;;;;;;5067749;28;20213;-78
2021/12/08 09:52:36;;;;;;;55.23;22.77;;;1.10;99.90;;;;;;5064677;28;20212;-78
2021/12/08 09:55:04;;;;;;;54.23;23.20;;;1.10;99.90;;;;;;5060095;28;20333;-78
2021/12/08 09:57:30;;;;;;;48.20;21.80;;;1.20;99.90;;;;;;5073109;28;20216;-78
2021/12/08 09:59:57;;;;;;;57.17;24.63;;;1.10;99.90;;;;;;5073684;28;20599;-78
2021/12/08 10:02:32;;;;;;;54.63;22.37;;;1.10;99.90;;;;;;5074998;28;20210;-78
2021/12/08 10:05:06;;;;;;;59.13;23.30;;;1.10;99.90;;;;;;5075268;28;20217;-78
2021/12/08 10:07:31;;;;;;;57.67;23.80;;;1.20;99.90;;;;;;5077584;28;20213;-77
2021/12/08 10:09:57;;;;;;;45.23;19.97;;;1.20;99.90;;;;;;5064914;28;20210;-77
2021/12/08 10:12:23;;;;;;;53.30;22.47;;;1.20;99.90;;;;;;5054529;28;20208;-78
2021/12/08 10:14:50;;;;;;;49.03;20.50;;;1.20;99.90;;;;;;5055200;28;20688;-77
2021/12/08 10:17:17;;;;;;;60.30;23.90;;;1.20;99.90;;;;;;5055195;28;20216;-79
2021/12/08 10:19:43;;;;;;;52.70;22.43;;;1.30;99.90;;;;;;5058839;28;20299;-79
2021/12/08 10:22:20;;;;;;;56.00;24.90;;;1.30;99.90;;;;;;5057132;28;20588;-77
2021/12/08 10:25:21;;;;;;;54.30;23.50;;;1.30;99.90;;;;;;5048688;28;20215;-78
2021/12/08 10:28:04;;;;;;;49.00;20.97;;;1.30;99.90;;;;;;5051730;28;20204;-78
2021/12/08 10:30:31;;;;;;;53.20;23.73;;;1.30;99.90;;;;;;5053575;28;20217;-78
2021/12/08 10:32:57;;;;;;;53.50;22.77;;;1.30;99.90;;;;;;5052645;28;20179;-77
2021/12/08 10:36:00;;;;;;;53.50;23.67;;;1.40;99.90;;;;;;5053558;28;20204;-78
2021/12/08 10:38:36;;;;;;;52.90;22.47;;;1.30;99.90;;;;;;5051899;28;20218;-77
2021/12/08 10:41:08;;;;;;;44.20;18.77;;;1.40;99.90;;;;;;5053955;28;20583;-78
2021/12/08 10:43:34;;;;;;;56.97;22.63;;;1.40;99.90;;;;;;5054240;28;20210;-78
2021/12/08 10:46:02;;;;;;;49.30;20.80;;;1.40;99.90;;;;;;5071922;28;20205;-78
2021/12/08 10:48:34;;;;;;;61.00;24.43;;;1.40;99.90;;;;;;5072154;28;20307;-78
2021/12/08 10:56:38;;;;;;;45.50;20.87;;;1.50;99.90;;;;;;5050864;28;20307;-77
2021/12/08 10:59:04;;;;;;;52.30;23.97;;;1.60;99.90;;;;;;5053438;28;20223;-77
2021/12/08 11:01:29;;;;;;;50.30;20.67;;;1.70;99.90;;;;;;5052835;28;20210;-77
2021/12/08 11:04:04;;;;;;;56.10;23.23;;;1.60;99.90;;;;;;5051152;28;20204;-77
2021/12/08 11:06:35;;;;;;;57.57;22.53;;;1.70;99.90;;;;;;5053872;28;20213;-77
2021/12/08 11:09:05;;;;;;;52.67;24.37;;;1.60;99.90;;;;;;5065816;28;20179;-78
2021/12/08 11:11:35;;;;;;;55.73;23.63;;;1.60;99.90;;;;;;5072800;28;20208;-77
2021/12/08 11:14:04;;;;;;;53.00;23.27;;;1.70;99.90;;;;;;5071546;28;20212;-77
2021/12/08 11:16:33;;;;;;;54.27;22.80;;;1.70;99.90;;;;;;5071450;28;20657;-77
2021/12/08 11:19:09;;;;;;;52.37;23.90;;;1.70;99.90;;;;;;5071116;28;20218;-77
2021/12/08 11:21:39;;;;;;;56.33;24.30;;;1.70;99.90;;;;;;5071447;28;20781;-78
2021/12/08 11:24:35;;;;;;;52.83;23.43;;;1.70;99.90;;;;;;5066362;28;20183;-78
2021/12/08 11:27:07;;;;;;;56.70;23.70;;;1.70;99.90;;;;;;5044632;28;20377;-77
2021/12/08 11:29:36;;;;;;;59.60;24.40;;;1.80;99.90;;;;;;5050965;28;20250;-78
2021/12/08 11:32:09;;;;;;;54.80;25.40;;;1.80;99.90;;;;;;5052325;28;20233;-77
2021/12/08 11:34:42;;;;;;;49.80;22.20;;;1.80;99.90;;;;;;5052582;28;20228;-78
2021/12/08 11:37:16;;;;;;;49.83;22.30;;;1.80;99.90;;;;;;5052430;28;20307;-78
2021/12/08 11:39:48;;;;;;;55.53;23.87;;;1.80;99.90;;;;;;5052332;28;20229;-78
2021/12/08 11:42:23;;;;;;;48.27;21.40;;;1.70;99.90;;;;;;5051601;28;20182;-77
2021/12/08 11:44:51;;;;;;;56.03;23.47;;;1.60;99.90;;;;;;5053624;28;20177;-78
2021/12/08 11:47:23;;;;;;;47.93;21.70;;;1.60;99.90;;;;;;5055811;28;20237;-77
2021/12/08 11:49:55;;;;;;;49.30;22.43;;;1.60;99.90;;;;;;5055920;28;20217;-77
2021/12/08 11:52:24;;;;;;;47.37;21.60;;;1.60;99.90;;;;;;5063341;28;20213;-77
2021/12/08 11:54:51;;;;;;;51.63;21.67;;;1.70;99.90;;;;;;5046831;28;20205;-77
2021/12/08 11:57:23;;;;;;;49.57;22.03;;;1.70;99.90;;;;;;5053824;28;20202;-78
2021/12/08 12:00:04;;;;;;;49.93;22.70;;;1.70;99.90;;;;;;5064338;28;20198;-77
2021/12/08 12:02:33;;;;;;;51.50;22.43;;;1.60;99.90;;;;;;5072729;28;20217;-78
2021/12/08 12:05:00;;;;;;;55.10;23.53;;;1.70;99.90;;;;;;5070753;28;20721;-77
2021/12/08 12:07:26;;;;;;;49.70;22.43;;;1.70;99.90;;;;;;5070213;28;20212;-78
2021/12/08 12:09:52;;;;;;;48.80;23.10;;;1.70;99.90;;;;;;5070699;28;20227;-77
2021/12/08 12:12:18;;;;;;;53.83;23.10;;;1.70;99.90;;;;;;5070596;28;20631;-78
2021/12/08 12:14:44;;;;;;;52.03;22.07;;;1.80;99.90;;;;;;5067705;28;20190;-78
2021/12/08 12:17:10;;;;;;;47.87;21.60;;;1.80;99.90;;;;;;5052016;28;20207;-78
2021/12/08 12:19:42;;;;;;;54.57;23.50;;;1.90;99.90;;;;;;5049981;28;20254;-78
2021/12/08 12:22:32;;;;;;;46.57;22.63;;;1.90;99.90;;;;;;5051907;28;20210;-77
2021/12/08 12:25:26;;;;;;;53.57;23.20;;;1.90;99.90;;;;;;5045200;28;20211;-79
2021/12/08 12:28:10;;;;;;;46.33;21.57;;;2.00;99.90;;;;;;5051934;28;20208;-78
2021/12/08 12:30:54;;;;;;;47.47;22.20;;;1.90;99.90;;;;;;5051497;28;20302;-78
2021/12/08 12:33:22;;;;;;;58.00;23.50;;;2.10;99.90;;;;;;5049612;28;20181;-77
2021/12/08 12:35:58;;;;;;;50.17;23.03;;;2.10;99.90;;;;;;5052396;28;20175;-76
2021/12/08 12:38:38;;;;;;;47.17;22.20;;;2.10;99.90;;;;;;5051036;28;20274;-75
2021/12/08 12:41:06;;;;;;;50.67;20.37;;;2.10;99.90;;;;;;5042022;28;20310;-77
2021/12/08 12:43:38;;;;;;;52.77;21.90;;;2.10;99.90;;;;;;5050952;28;20207;-73
2021/12/08 12:46:05;;;;;;;42.23;20.03;;;2.00;99.90;;;;;;5057100;28;20201;-74
2021/12/08 12:48:32;;;;;;;48.63;21.93;;;2.00;99.90;;;;;;5057073;28;20321;-74
2021/12/08 12:51:07;;;;;;;47.83;21.67;;;2.00;99.90;;;;;;5056389;28;20582;-76
2021/12/08 12:53:47;;;;;;;48.67;20.60;;;1.90;99.90;;;;;;5069185;28;20202;-75
2021/12/08 12:56:16;;;;;;;48.80;20.77;;;1.90;99.90;;;;;;5059736;28;20706;-73
2021/12/08 12:58:46;;;;;;;47.73;21.67;;;1.90;99.90;;;;;;5056138;28;20243;-74
2021/12/08 13:01:16;;;;;;;43.07;19.30;;;1.80;99.90;;;;;;5047033;28;20262;-74
2021/12/08 13:03:49;;;;;;;45.67;20.53;;;1.90;99.90;;;;;;5048566;28;20222;-74
2021/12/08 13:06:37;;;;;;;42.47;20.67;;;1.90;99.90;;;;;;5050313;28;20193;-75
2021/12/08 13:09:05;;;;;;;47.03;20.67;;;1.90;99.90;;;;;;5050219;28;20551;-74
2021/12/08 13:11:55;;;;;;;47.33;20.23;;;1.90;99.90;;;;;;5048461;28;20211;-74
2021/12/08 13:14:30;;;;;;;49.77;22.13;;;1.90;99.90;;;;;;5050441;28;20210;-74
2021/12/08 13:17:18;;;;;;;47.27;20.53;;;1.80;99.90;;;;;;5048880;28;20214;-74
2021/12/08 13:19:51;;;;;;;46.90;21.27;;;1.90;99.90;;;;;;5049831;28;20269;-74
2021/12/08 13:22:46;;;;;;;44.33;19.10;;;1.90;99.90;;;;;;5048852;28;20238;-75
2021/12/08 13:25:30;;;;;;;45.40;19.37;;;1.80;99.90;;;;;;5044894;28;20267;-75
2021/12/08 13:28:17;;;;;;;38.67;18.97;;;1.80;99.90;;;;;;5049930;28;20219;-74
2021/12/08 13:30:44;;;;;;;40.87;19.67;;;1.80;99.90;;;;;;5049702;28;20206;-74
2021/12/08 13:33:26;;;;;;;50.73;20.80;;;1.80;99.90;;;;;;5056229;28;20231;-76